Echo Bay, Nevada
Current Conditions -  °F | °C
As of 7:58 AM on Tuesday 21 Oct 2014 (Local Time) from KLSV Reporting Station
Clear Clear  
Wind Chill: 71°   Ceiling: Unl
Heat Index: 71°   Visibility: 10mi
Dew Point: 40°   Wind: 2mph
Humidity: 33%   Direction: 300°WNW
Pressure: 29.88"   Gusts: NA
Location:  36.5809°N, 114.605°W
Report Text: KLSV 211458Z AUTO 30002KT 10SM CLR 22/05 A2988 RMK AO2 SLP099 T02160045 52017 $
Loading
Personal Weather Stations






























Interactive Weather Map
Tropical Storm Tracking
New forecast layout! Learn more

10-Day Weather Forecast

Advertisements
Track Severe Weather on mobile